Maryland METAR Reports


Distance/Direction noted is from Ellicott City, MD as the crow flies

KCBE - Cumberland - 118 miles WNW
Updated: Tue, 09/23/2014 6:10 AM
Clear
Clear
 Wind from calm
Wind: Calm
Temperature: 41°F
Dew Point: 39°F
Humidity: 93%
Barometer: 30.36 inHg
Clouds: Clear
Visibility: 10 miles
2014/09/23 10:10 KCBE 231010Z AUTO 00000KT 10SM CLR 05/04 A3036 RMK AO1
KHGR - Hagerstown - 57 miles NW
Updated: Tue, 09/23/2014 5:53 AM
Clear
Clear
 Wind from N
Wind: N 6 mph
Temperature: 46°F
Wind Chill: 43°F
Dew Point: 39°F
Humidity: 76%
Barometer: 30.30 inHg
Clouds: Clear
Visibility: 10 miles
2014/09/23 09:53 KHGR 230953Z AUTO 36005KT 10SM CLR 08/04 A3030 RMK AO2 SLP270 T00830039 TSNO
 
KFDK - Frederick - 34 miles NW
Updated: Tue, 09/23/2014 6:10 AM
Clear
Clear
 Wind from SSE
Wind: SSE 5 mph
Temperature: 45°F
Wind Chill: 42°F
Dew Point: 43°F
Humidity: 93%
Barometer: 30.33 inHg
Clouds: Clear
Visibility: 10 miles
2014/09/23 10:10 KFDK 231010Z AUTO 16004KT 10SM CLR 07/06 A3033 RMK AO2
KGAI - Gaithersburg - 26 miles SW
Updated: Tue, 09/23/2014 6:15 AM
Clear
Clear
 Wind from calm
Wind: Calm
Temperature: 43°F
Dew Point: 39°F
Humidity: 87%
Barometer: 30.34 inHg
Clouds: Clear
Visibility: 10 miles
2014/09/23 10:15 KGAI 231015Z 00000KT 10SM CLR 06/04 A3034 RMK AO1
 
KBWI - BWI Airport - 15 miles SE
Updated: Tue, 09/23/2014 5:54 AM
Few Clouds
Few Clouds
 Wind from NNW
Wind: NNW 6 mph
Temperature: 48°F
Wind Chill: 45°F
Dew Point: 43°F
Humidity: 82%
Barometer: 30.28 inHg
Clouds: Few Clouds
Visibility: 10 miles
Cloud Details: Few Clouds 25000 ft
2014/09/23 09:54 KBWI 230954Z 33005KT 10SM FEW250 09/06 A3028 RMK AO2 SLP253 T00890061 $
KNAK - Annapolis - 32 miles SSE
Updated: Tue, 09/23/2014 5:54 AM
Clear
Clear
 
Temperature: 55°F
Dew Point: 46°F
Humidity: 72%
Barometer: 30.28 inHg
Clouds: Clear
Visibility: 10 miles
2014/09/23 09:54 KNAK 230954Z AUTO 10SM CLR 13/08 A3028 RMK AO2 SLP256 T01280083 $
 
KESN - Easton - 63 miles SE
Updated: Tue, 09/23/2014 6:22 AM
Clear
Clear
 Wind from calm
Wind: Calm
Temperature: 50°F
Dew Point: 48°F
Humidity: 94%
Barometer: 30.31 inHg
Clouds: Clear
Visibility: 10 miles
2014/09/23 10:22 KESN 231022Z AUTO 00000KT 10SM CLR 10/09 A3031 RMK AO2 T00980085
KSBY - Salisbury - 112 miles SE
Updated: Tue, 09/23/2014 5:54 AM
Clear
Clear
 Wind from NNW
Wind: NNW 5 mph
Temperature: 52°F
Dew Point: 43°F
Humidity: 72%
Barometer: 30.27 inHg
Clouds: Clear
Visibility: 10 miles
2014/09/23 09:54 KSBY 230954Z 34004KT 10SM CLR 11/06 A3027 RMK AO2 SLP252 T01110061